Time;durP1;ratioP1;P1;durP2;ratioP2;P2;SDS_P1;SDS_P2;PMS_P1;PMS_P2;Temp;Humidity;BMP_temperature;BMP_pressure;BME280_temperature;BME280_humidity;BME280_pressure;Samples;Min_cycle;Max_cycle;Signal;HPM_P1;HPM_P2
2023/05/14 00:02:01;;;;;;;2.73;2.53;;;15.10;76.80;;;15.29;51.29;95376.34;5110078;27;20544;-64
2023/05/14 00:04:29;;;;;;;4.13;2.53;;;15.10;76.90;;;15.28;51.35;95372.03;5113512;27;20533;-58
2023/05/14 00:06:57;;;;;;;4.50;3.10;;;15.10;77.00;;;15.29;51.47;95375.50;5113459;27;20508;-63
2023/05/14 00:09:24;;;;;;;2.97;2.77;;;15.10;77.00;;;15.28;51.53;95369.38;5113399;27;20468;-59
2023/05/14 00:11:52;;;;;;;7.03;2.60;;;15.10;77.10;;;15.26;51.40;95374.00;5113656;27;20539;-63
2023/05/14 00:14:19;;;;;;;2.53;2.17;;;15.10;77.00;;;15.24;51.33;95368.84;5112416;27;20484;-58
2023/05/14 00:16:47;;;;;;;3.80;2.63;;;15.10;77.10;;;15.23;51.61;95371.66;5114201;27;20514;-64
2023/05/14 00:19:14;;;;;;;4.60;3.10;;;15.10;77.20;;;15.20;51.49;95366.69;5110445;27;20545;-65
2023/05/14 00:21:42;;;;;;;4.00;2.53;;;15.10;77.20;;;15.18;51.74;95363.31;5111381;27;21054;-64
2023/05/14 00:24:10;;;;;;;9.60;2.97;;;15.00;77.30;;;15.13;51.67;95357.69;5112865;27;20499;-58
2023/05/14 00:26:37;;;;;;;3.93;2.77;;;15.00;77.50;;;15.14;51.75;95362.81;5115811;27;20452;-57
2023/05/14 00:29:05;;;;;;;8.43;2.53;;;15.00;77.70;;;15.14;51.99;95349.56;5109655;27;20499;-58
2023/05/14 00:31:32;;;;;;;7.20;3.23;;;15.00;77.70;;;15.15;51.96;95353.03;5109273;27;20491;-63
2023/05/14 00:33:59;;;;;;;5.70;2.87;;;15.00;77.80;;;15.14;51.92;95351.41;5112600;27;20534;-68
2023/05/14 00:36:26;;;;;;;5.23;3.13;;;15.00;77.70;;;15.12;52.05;95348.06;5111077;27;20453;-57
2023/05/14 00:38:55;;;;;;;3.27;2.90;;;15.00;77.80;;;15.10;51.76;95344.75;5110406;27;20493;-63
2023/05/14 00:41:23;;;;;;;3.10;2.80;;;15.00;77.90;;;15.10;52.00;95348.22;5116695;27;20460;-56
2023/05/14 00:43:50;;;;;;;2.93;2.70;;;15.00;77.90;;;15.08;51.94;95347.53;5114054;27;20472;-56
2023/05/14 00:46:17;;;;;;;3.67;2.80;;;14.90;77.90;;;15.09;51.85;95353.66;5110766;27;20457;-64
2023/05/14 00:48:45;;;;;;;7.73;4.03;;;14.90;77.90;;;15.09;51.94;95343.06;5111955;27;20545;-58
2023/05/14 00:51:12;;;;;;;3.70;3.27;;;14.90;78.10;;;15.09;51.85;95337.78;5112142;27;20457;-57
2023/05/14 00:53:39;;;;;;;5.10;2.50;;;14.90;78.20;;;15.06;52.13;95334.47;5109661;27;20477;-63
2023/05/14 00:56:08;;;;;;;6.70;3.17;;;14.90;78.20;;;15.06;52.03;95333.63;5110113;27;20464;-57
2023/05/14 00:58:35;;;;;;;9.97;2.60;;;14.90;78.10;;;15.04;52.07;95328.50;5112687;27;20557;-56
2023/05/14 01:01:03;;;;;;;6.37;3.23;;;14.90;78.00;;;15.02;51.97;95321.69;5110554;27;20461;-56
2023/05/14 01:03:30;;;;;;;5.33;2.90;;;14.90;78.00;;;15.01;52.07;95334.09;5111431;27;20575;-57
2023/05/14 01:06:04;;;;;;;7.53;2.30;;;14.90;78.00;;;14.99;51.93;95328.09;5114194;27;20449;-58
2023/05/14 01:08:40;;;;;;;4.03;2.80;;;14.80;78.00;;;15.02;52.05;95325.16;5110358;27;20484;-57
2023/05/14 01:11:17;;;;;;;4.07;2.23;;;14.90;78.30;;;15.02;51.99;95329.63;5115981;27;20473;-56
2023/05/14 01:13:59;;;;;;;3.60;2.97;;;14.90;78.30;;;15.00;51.93;95318.38;5120261;27;20480;-56
2023/05/14 01:16:27;;;;;;;9.17;3.03;;;14.80;78.10;;;14.97;52.10;95322.16;5120460;27;20482;-58
2023/05/14 01:18:56;;;;;;;5.10;2.87;;;14.80;78.30;;;14.95;52.17;95340.03;5119047;27;20512;-59
2023/05/14 01:21:39;;;;;;;12.57;2.97;;;14.80;78.20;;;14.94;52.21;95350.78;5118875;27;20460;-57
2023/05/14 01:24:07;;;;;;;4.00;2.30;;;14.80;78.40;;;14.93;51.92;95349.91;5117874;27;20464;-58
2023/05/14 01:26:34;;;;;;;3.10;2.80;;;14.80;78.20;;;14.92;51.95;95348.28;5108752;27;21195;-57
2023/05/14 01:29:06;;;;;;;2.43;2.33;;;14.70;78.10;;;14.90;51.86;95355.53;5108161;27;20469;-57
2023/05/14 01:31:33;;;;;;;6.37;2.47;;;14.80;78.00;;;14.91;51.71;95351.09;5109523;27;20455;-57
2023/05/14 01:34:00;;;;;;;2.97;2.73;;;14.70;77.90;;;14.90;51.79;95362.66;5110268;27;20469;-56
2023/05/14 01:36:29;;;;;;;3.37;2.60;;;14.70;77.60;;;14.90;51.56;95358.16;5110482;27;20449;-63
2023/05/14 01:38:57;;;;;;;6.97;2.20;;;14.70;77.40;;;14.88;51.25;95347.72;5114355;27;20487;-63
2023/05/14 01:41:24;;;;;;;2.93;2.40;;;14.70;77.20;;;14.86;51.63;95355.00;5108749;27;20847;-58
2023/05/14 01:43:52;;;;;;;4.40;2.43;;;14.70;77.30;;;14.84;51.49;95350.84;5114269;27;20469;-56
2023/05/14 01:46:19;;;;;;;8.97;2.33;;;14.70;77.40;;;14.84;51.58;95357.00;5111554;27;20973;-57
2023/05/14 01:48:46;;;;;;;7.73;2.60;;;14.70;77.40;;;14.84;51.39;95359.63;5107723;27;20457;-63
2023/05/14 01:51:14;;;;;;;3.20;2.27;;;14.70;77.40;;;14.83;51.70;95349.19;5108225;27;20487;-64
2023/05/14 01:53:42;;;;;;;2.80;2.27;;;14.70;77.40;;;14.81;51.50;95362.59;5112082;27;20492;-64
2023/05/14 01:56:10;;;;;;;3.00;2.20;;;14.70;77.40;;;14.82;51.76;95363.41;5114135;27;21027;-56
2023/05/14 01:58:37;;;;;;;2.30;2.17;;;14.70;77.70;;;14.83;51.92;95362.44;5113289;27;20511;-58
2023/05/14 02:01:04;;;;;;;3.07;2.53;;;14.60;77.80;;;14.84;51.94;95356.13;5113729;27;20494;-63
2023/05/14 02:03:32;;;;;;;2.47;2.27;;;14.60;77.80;;;14.83;51.61;95357.16;5109757;27;20557;-62
2023/05/14 02:05:59;;;;;;;2.33;2.13;;;14.70;78.00;;;14.79;51.92;95358.44;5110518;27;20447;-57
2023/05/14 02:08:26;;;;;;;2.80;2.60;;;14.60;78.00;;;14.76;52.00;95359.56;5108713;28;20559;-57
2023/05/14 02:10:55;;;;;;;2.27;1.73;;;14.60;78.10;;;14.74;51.77;95363.38;5114077;27;20457;-64
2023/05/14 02:13:22;;;;;;;5.97;2.20;;;14.60;78.00;;;14.69;51.83;95362.00;5104634;28;20539;-57
2023/05/14 02:15:50;;;;;;;3.97;2.53;;;14.60;77.90;;;14.66;52.05;95358.84;5105166;28;20445;-63
2023/05/14 02:18:17;;;;;;;3.83;2.07;;;14.50;77.90;;;14.63;51.89;95375.03;5104185;28;20461;-58
2023/05/14 02:20:44;;;;;;;2.00;1.90;;;14.50;78.10;;;14.58;52.19;95366.66;5104845;28;20449;-57
2023/05/14 02:23:12;;;;;;;7.40;2.57;;;14.40;78.10;;;14.53;52.41;95361.81;5108802;28;20894;-63
2023/05/14 02:25:39;;;;;;;1.97;1.87;;;14.40;78.30;;;14.49;52.46;95363.13;5106754;28;20452;-57
2023/05/14 02:28:07;;;;;;;2.40;1.90;;;14.40;78.70;;;14.46;52.48;95366.91;5110591;27;20444;-64
2023/05/14 02:30:35;;;;;;;4.80;2.53;;;14.30;78.80;;;14.42;52.48;95367.34;5110929;28;20456;-57
2023/05/14 02:33:02;;;;;;;6.27;2.30;;;14.30;79.00;;;14.39;52.45;95368.50;5110531;28;20524;-64
2023/05/14 02:35:29;;;;;;;12.30;2.33;;;14.20;79.00;;;14.38;52.69;95371.31;5108105;28;20506;-63
2023/05/14 02:37:58;;;;;;;5.43;2.13;;;14.20;79.40;;;14.34;53.07;95382.19;5114641;28;20461;-57
2023/05/14 02:40:25;;;;;;;2.67;2.47;;;14.20;79.60;;;14.31;53.30;95382.47;5109407;28;20493;-63
2023/05/14 02:42:52;;;;;;;2.73;2.10;;;14.20;80.00;;;14.29;53.21;95381.78;5108989;28;20461;-63
2023/05/14 02:45:21;;;;;;;9.33;2.40;;;14.20;80.00;;;14.25;53.13;95383.09;5110655;28;20452;-63
2023/05/14 02:47:48;;;;;;;2.30;2.10;;;14.10;79.90;;;14.22;53.52;95378.09;5107265;28;20449;-56
2023/05/14 02:50:16;;;;;;;2.90;2.40;;;14.10;80.20;;;14.19;53.24;95383.69;5106513;28;20491;-59
2023/05/14 02:52:43;;;;;;;2.10;2.00;;;14.10;80.60;;;14.18;53.31;95392.59;5110605;28;20451;-56
2023/05/14 02:55:11;;;;;;;3.57;2.27;;;14.10;80.70;;;14.16;53.88;95390.09;5106334;28;20477;-64
2023/05/14 02:57:39;;;;;;;3.87;2.93;;;14.10;81.20;;;14.16;53.96;95391.91;5109596;27;20457;-64
2023/05/14 03:00:09;;;;;;;2.67;2.47;;;14.00;81.20;;;14.14;53.82;95381.47;5115248;27;21046;-56
2023/05/14 03:02:37;;;;;;;2.70;1.93;;;14.00;81.10;;;14.14;54.10;95386.78;5115637;27;20947;-57
2023/05/14 03:05:05;;;;;;;6.50;2.23;;;14.00;81.50;;;14.14;53.69;95388.56;5114536;27;20491;-56
2023/05/14 03:07:33;;;;;;;2.27;2.00;;;14.00;81.40;;;14.13;53.74;95379.00;5116353;27;21293;-57
2023/05/14 03:10:00;;;;;;;2.57;2.37;;;14.00;81.40;;;14.12;53.83;95379.97;5115739;27;20677;-57
2023/05/14 03:12:27;;;;;;;2.40;2.30;;;14.00;81.60;;;14.12;53.96;95369.38;5118376;27;20473;-65
2023/05/14 03:14:54;;;;;;;3.10;2.40;;;14.00;81.70;;;14.09;53.93;95357.28;5112257;27;20496;-56
2023/05/14 03:17:22;;;;;;;4.40;3.27;;;14.00;81.40;;;14.09;53.92;95367.84;5107243;28;20980;-57
2023/05/14 03:19:50;;;;;;;5.03;2.80;;;14.00;81.70;;;14.05;53.99;95355.06;5106408;27;20500;-58
2023/05/14 03:22:18;;;;;;;2.77;2.57;;;13.90;81.50;;;14.05;53.88;95370.94;5113737;27;20457;-64
2023/05/14 03:24:45;;;;;;;3.97;2.07;;;13.90;81.50;;;14.03;54.02;95367.63;5112492;27;20859;-56
2023/05/14 03:27:12;;;;;;;2.33;2.23;;;13.90;81.50;;;14.01;53.65;95377.53;5111832;27;21333;-63
2023/05/14 03:29:39;;;;;;;2.30;2.07;;;13.90;81.60;;;14.00;54.16;95379.31;5112081;27;20967;-64
2023/05/14 03:32:07;;;;;;;3.20;2.10;;;13.90;81.80;;;13.98;53.96;95384.75;5112727;27;20827;-64
2023/05/14 03:34:34;;;;;;;3.20;2.33;;;13.90;81.80;;;13.97;53.95;95375.19;5112635;27;20549;-63
2023/05/14 03:37:03;;;;;;;2.37;2.17;;;13.90;82.10;;;13.97;53.96;95396.34;5111918;27;20563;-57
2023/05/14 03:39:30;;;;;;;2.53;1.73;;;13.90;82.50;;;13.93;54.27;95376.44;5117308;27;20500;-55
2023/05/14 03:41:58;;;;;;;2.10;2.00;;;13.80;82.80;;;13.89;54.75;95380.34;5113859;27;20870;-57
2023/05/14 03:44:25;;;;;;;2.53;2.03;;;13.80;83.30;;;13.85;54.95;95380.81;5113021;27;20476;-63
2023/05/14 03:46:52;;;;;;;3.33;2.37;;;13.80;83.80;;;13.80;55.43;95375.94;5114363;27;20460;-63
2023/05/14 03:49:20;;;;;;;2.67;2.50;;;13.70;84.10;;;13.76;55.51;95374.59;5111525;27;20483;-56
2023/05/14 03:51:47;;;;;;;4.10;2.57;;;13.70;84.90;;;13.71;55.82;95387.41;5112266;27;20472;-64
2023/05/14 03:54:16;;;;;;;2.60;2.30;;;13.60;85.40;;;13.68;55.94;95390.34;5114785;27;21378;-57
2023/05/14 03:56:43;;;;;;;2.30;2.10;;;13.60;85.70;;;13.66;55.92;95393.13;5118075;27;20452;-57
2023/05/14 03:59:10;;;;;;;2.37;1.83;;;13.60;85.70;;;13.65;56.40;95382.69;5113113;27;20861;-56
2023/05/14 04:01:37;;;;;;;1.93;1.63;;;13.50;86.40;;;13.61;56.42;95380.34;5109110;27;20837;-63
2023/05/14 04:04:05;;;;;;;2.40;1.97;;;13.50;86.60;;;13.59;56.92;95382.31;5112919;27;20489;-63
2023/05/14 04:06:33;;;;;;;2.53;2.43;;;13.50;87.20;;;13.61;56.75;95398.03;5111813;27;21009;-57
2023/05/14 04:09:00;;;;;;;7.13;3.40;;;13.50;87.90;;;13.61;56.40;95401.50;5107526;27;20460;-57
2023/05/14 04:11:29;;;;;;;2.30;2.03;;;13.50;87.60;;;13.62;56.76;95392.59;5108862;27;20446;-63
2023/05/14 04:13:56;;;;;;;2.13;2.00;;;13.50;87.60;;;13.60;56.79;95402.50;5118259;27;20472;-57
2023/05/14 04:16:23;;;;;;;6.80;2.17;;;13.50;87.70;;;13.59;56.90;95403.47;5117866;27;20457;-57
2023/05/14 04:18:51;;;;;;;2.40;2.27;;;13.50;87.90;;;13.58;56.95;95398.31;5111160;27;20483;-63
2023/05/14 04:21:18;;;;;;;2.83;2.63;;;13.50;88.30;;;13.57;56.79;95402.78;5111837;27;20456;-62
2023/05/14 04:23:45;;;;;;;2.67;2.43;;;13.50;88.00;;;13.54;56.86;95389.84;5110910;27;20492;-57
2023/05/14 04:26:12;;;;;;;4.80;2.97;;;13.40;88.30;;;13.57;56.53;95410.72;5109505;27;20445;-65
2023/05/14 04:28:41;;;;;;;6.37;2.23;;;13.50;88.20;;;13.57;56.74;95410.72;5113224;27;20530;-65
2023/05/14 04:31:08;;;;;;;2.10;2.00;;;13.50;88.40;;;13.58;56.48;95407.06;5110474;27;20533;-57
2023/05/14 04:33:35;;;;;;;2.80;2.60;;;13.50;88.20;;;13.58;56.59;95411.53;5109166;27;20480;-64
2023/05/14 04:36:03;;;;;;;4.50;2.40;;;13.50;88.40;;;13.58;56.53;95412.34;5110432;27;20460;-64
2023/05/14 04:38:31;;;;;;;2.47;2.20;;;13.50;88.30;;;13.61;56.71;95417.34;5111913;27;20559;-57
2023/05/14 04:40:58;;;;;;;7.27;3.00;;;13.50;88.30;;;13.63;56.32;95426.00;5109853;27;20579;-65
2023/05/14 04:43:25;;;;;;;2.63;2.43;;;13.50;88.20;;;13.64;56.71;95440.03;5106974;27;20476;-63
2023/05/14 04:45:54;;;;;;;2.43;2.23;;;13.50;88.10;;;13.62;56.54;95440.19;5111524;27;20885;-63
2023/05/14 04:48:22;;;;;;;7.07;2.37;;;13.50;88.20;;;13.63;56.75;95441.00;5110141;27;20531;-59
2023/05/14 04:50:49;;;;;;;4.60;2.40;;;13.50;88.40;;;13.63;56.41;95452.44;5113202;27;20460;-62
2023/05/14 04:53:16;;;;;;;2.37;2.17;;;13.50;88.60;;;13.66;56.50;95455.75;5108106;27;20457;-56
2023/05/14 04:55:44;;;;;;;5.37;2.37;;;13.50;88.50;;;13.65;56.79;95460.22;5112677;27;20557;-61
2023/05/14 04:58:11;;;;;;;3.50;2.40;;;13.50;89.30;;;13.65;56.91;95462.84;5111623;27;20964;-57
2023/05/14 05:00:38;;;;;;;5.97;2.53;;;13.60;89.40;;;13.64;56.83;95469.09;5116766;27;20533;-60
2023/05/14 05:03:07;;;;;;;6.20;2.70;;;13.50;89.70;;;13.62;57.44;95477.19;5107644;27;21482;-62
2023/05/14 05:05:35;;;;;;;2.10;1.90;;;13.50;90.30;;;13.62;57.13;95479.81;5110083;27;20547;-57
2023/05/14 05:08:02;;;;;;;5.20;3.10;;;13.50;90.20;;;13.60;57.84;95487.06;5104587;28;20536;-63
2023/05/14 05:10:29;;;;;;;2.87;2.40;;;13.50;90.60;;;13.57;57.54;95484.72;5105205;28;20449;-56
2023/05/14 05:12:57;;;;;;;2.60;2.40;;;13.50;90.70;;;13.53;58.06;95493.91;5104454;28;20500;-57
2023/05/14 05:15:24;;;;;;;3.10;2.80;;;13.40;90.70;;;13.52;58.24;95494.88;5111432;27;20529;-64
2023/05/14 05:17:51;;;;;;;3.47;2.90;;;13.40;91.20;;;13.50;59.25;95491.53;5110860;27;20518;-57
2023/05/14 05:20:20;;;;;;;3.73;2.53;;;13.40;92.10;;;13.50;59.04;95503.94;5111377;27;20542;-64
2023/05/14 05:22:48;;;;;;;3.30;3.00;;;13.40;92.00;;;13.45;59.86;95501.72;5108386;27;20461;-64
2023/05/14 05:25:15;;;;;;;4.60;3.00;;;13.30;92.70;;;13.44;60.26;95510.59;5114079;27;20453;-65
2023/05/14 05:27:42;;;;;;;2.87;2.77;;;13.30;93.40;;;13.43;60.00;95503.63;5108799;27;20453;-62
2023/05/14 05:30:11;;;;;;;5.60;3.60;;;13.30;93.60;;;13.41;60.71;95500.31;5107994;27;20473;-56
2023/05/14 05:32:38;;;;;;;3.07;2.83;;;13.30;94.30;;;13.38;60.97;95500.59;5113483;27;20936;-64
2023/05/14 05:35:07;;;;;;;4.90;3.50;;;13.30;94.90;;;13.32;61.04;95501.97;5114862;27;20893;-65
2023/05/14 05:37:35;;;;;;;15.30;9.57;;;13.20;94.70;;;13.22;61.83;95504.63;5107998;27;20453;-64
2023/05/14 05:40:04;;;;;;;9.60;6.37;;;13.20;95.50;;;13.15;62.35;95506.16;5104549;27;20864;-57
2023/05/14 05:42:31;;;;;;;13.87;7.13;;;13.10;96.00;;;13.10;63.31;95516.31;5113747;27;20444;-65
2023/05/14 05:44:59;;;;;;;15.10;9.13;;;13.00;97.40;;;13.06;63.58;95509.66;5109093;27;20469;-56
2023/05/14 05:47:26;;;;;;;8.80;6.60;;;13.00;97.70;;;13.00;64.45;95508.38;5105889;27;20445;-58
2023/05/14 05:49:53;;;;;;;14.23;8.47;;;12.90;98.40;;;12.94;63.64;95513.41;5110639;27;20488;-57
2023/05/14 05:52:21;;;;;;;3.63;3.30;;;12.90;98.40;;;12.89;64.74;95513.81;5108689;27;20453;-65
2023/05/14 05:54:49;;;;;;;6.63;3.73;;;12.80;99.50;;;12.83;64.93;95509.91;5113550;27;20469;-58
2023/05/14 05:57:17;;;;;;;4.30;3.90;;;12.70;99.70;;;12.77;64.59;95510.47;5110410;27;20457;-66
2023/05/14 05:59:44;;;;;;;5.53;3.40;;;12.70;99.90;;;12.73;66.33;95507.28;5108502;27;20480;-57
2023/05/14 06:02:12;;;;;;;3.90;3.60;;;12.60;99.90;;;12.68;65.60;95508.63;5108408;27;20526;-59
2023/05/14 06:04:39;;;;;;;7.60;4.67;;;12.60;99.90;;;12.64;66.93;95505.44;5110507;27;20472;-66
2023/05/14 06:07:06;;;;;;;4.00;3.70;;;12.60;99.90;;;12.60;65.86;95511.13;5105766;28;20549;-59
2023/05/14 06:09:33;;;;;;;4.33;3.90;;;12.60;99.90;;;12.56;66.37;95515.84;5112254;28;20469;-67
2023/05/14 06:12:02;;;;;;;3.80;3.50;;;12.50;99.90;;;12.50;67.19;95511.09;5107955;28;20449;-68
2023/05/14 06:14:30;;;;;;;4.67;4.23;;;12.50;99.90;;;12.46;67.38;95521.09;5108250;27;20488;-68
2023/05/14 06:16:57;;;;;;;8.80;4.20;;;12.40;99.90;;;12.41;67.62;95515.41;5114246;28;20461;-57
2023/05/14 06:19:24;;;;;;;4.60;3.57;;;12.30;99.90;;;12.33;67.96;95494.97;5106163;28;20465;-67
2023/05/14 06:21:52;;;;;;;3.90;3.60;;;12.30;99.90;;;12.30;68.44;95502.31;5110497;28;20484;-68
2023/05/14 06:24:20;;;;;;;33.67;17.57;;;12.30;99.90;;;12.27;69.05;95499.94;5108531;28;21011;-58
2023/05/14 06:26:48;;;;;;;5.77;4.10;;;12.20;99.90;;;12.23;69.66;95507.28;5111719;27;20918;-69
2023/05/14 06:29:16;;;;;;;7.00;4.50;;;12.30;99.90;;;12.19;69.67;95519.91;5108490;28;20464;-68
2023/05/14 06:31:44;;;;;;;4.63;4.33;;;12.10;99.90;;;12.16;69.38;95519.34;5112993;27;20463;-69
2023/05/14 06:34:11;;;;;;;5.67;4.00;;;12.10;99.90;;;12.12;69.45;95529.31;5109443;27;20496;-71
2023/05/14 06:36:39;;;;;;;5.23;4.73;;;12.10;99.90;;;12.07;70.78;95531.53;5114450;27;20444;-71
2023/05/14 06:39:06;;;;;;;5.07;4.00;;;12.00;99.90;;;11.99;70.70;95524.28;5110833;27;20569;-58
2023/05/14 06:41:34;;;;;;;6.23;4.00;;;12.00;99.90;;;11.94;70.59;95523.00;5116058;27;20518;-72
2023/05/14 06:44:01;;;;;;;9.03;4.43;;;11.90;99.90;;;11.92;70.97;95522.28;5114384;27;20495;-69
2023/05/14 06:46:30;;;;;;;4.27;3.97;;;11.90;99.90;;;11.92;72.20;95517.84;5113772;27;20457;-60
2023/05/14 06:48:57;;;;;;;8.20;4.13;;;11.90;99.90;;;11.91;71.37;95510.06;5112969;27;20486;-57
2023/05/14 06:51:24;;;;;;;4.70;4.30;;;11.80;99.90;;;11.90;71.12;95518.91;5114880;27;20934;-59
2023/05/14 06:53:53;;;;;;;5.77;4.10;;;11.90;99.90;;;11.87;71.83;95506.84;5111775;27;20476;-58
2023/05/14 06:56:21;;;;;;;6.27;4.53;;;11.80;99.90;;;11.88;71.58;95510.31;5107851;27;20555;-58
2023/05/14 06:58:48;;;;;;;8.70;5.30;;;11.80;99.90;;;11.87;72.60;95498.09;5109071;28;20510;-69
2023/05/14 07:01:16;;;;;;;7.50;5.30;;;11.80;99.90;;;11.91;72.51;95507.41;5108300;28;20484;-58
2023/05/14 07:03:45;;;;;;;6.20;5.20;;;11.80;99.90;;;11.98;72.84;95513.88;5109999;27;20462;-57
2023/05/14 07:06:12;;;;;;;8.33;5.10;;;11.90;99.90;;;12.08;73.05;95524.44;5113801;27;20449;-68
2023/05/14 07:08:40;;;;;;;8.27;5.60;;;12.00;99.90;;;12.15;73.42;95515.88;5111784;27;20461;-59
2023/05/14 07:11:07;;;;;;;12.53;6.53;;;12.00;99.90;;;12.25;73.80;95517.72;5114672;27;21044;-67
2023/05/14 07:13:35;;;;;;;16.10;7.53;;;12.10;99.90;;;12.34;73.34;95522.19;5117103;27;20498;-68
2023/05/14 07:16:02;;;;;;;6.17;5.40;;;12.20;99.90;;;12.44;73.22;95540.66;5116871;27;20472;-58
2023/05/14 07:18:29;;;;;;;8.50;6.20;;;12.30;99.90;;;12.45;73.10;95540.53;5115340;27;20472;-59
2023/05/14 07:20:58;;;;;;;8.50;6.23;;;12.40;99.90;;;12.51;72.85;95540.00;5108246;28;20499;-69
2023/05/14 07:23:25;;;;;;;8.43;5.00;;;12.40;99.90;;;12.53;72.60;95527.50;5107534;28;20492;-70
2023/05/14 07:25:53;;;;;;;8.63;6.03;;;12.40;99.90;;;12.54;73.23;95533.63;5113491;27;20456;-70
2023/05/14 07:28:20;;;;;;;7.57;5.20;;;12.40;99.90;;;12.54;72.99;95544.16;5113740;27;20819;-58
2023/05/14 07:30:47;;;;;;;7.60;5.90;;;12.40;99.90;;;12.52;72.41;95523.19;5111826;27;20498;-58
2023/05/14 07:33:15;;;;;;;9.83;6.27;;;12.40;99.90;;;12.51;72.79;95524.16;5109272;27;20449;-59
2023/05/14 07:35:42;;;;;;;7.63;6.77;;;12.40;99.90;;;12.51;73.40;95526.78;5109238;27;20483;-69
2023/05/14 07:38:11;;;;;;;13.20;6.10;;;12.40;99.90;;;12.53;73.19;95532.78;5112956;27;20449;-60
2023/05/14 07:40:38;;;;;;;10.20;5.97;;;12.40;99.90;;;12.58;73.89;95535.03;5116568;27;20488;-59
2023/05/14 07:43:05;;;;;;;9.70;6.40;;;12.40;99.90;;;12.61;73.70;95533.91;5106899;28;20441;-69
2023/05/14 07:45:33;;;;;;;19.70;7.67;;;12.50;99.90;;;12.67;74.17;95533.34;5111750;28;20449;-59
2023/05/14 07:48:00;;;;;;;12.00;7.67;;;12.60;99.90;;;12.74;73.83;95542.41;5107257;28;21008;-68
2023/05/14 07:50:27;;;;;;;8.80;6.93;;;12.60;99.90;;;12.79;73.13;95537.53;5111897;27;20449;-59
2023/05/14 07:52:55;;;;;;;12.07;7.07;;;12.60;99.90;;;12.82;73.27;95541.72;5109029;27;20452;-59
2023/05/14 07:55:23;;;;;;;9.03;7.33;;;12.70;99.90;;;12.82;72.73;95539.09;5108273;27;20503;-69
2023/05/14 07:57:51;;;;;;;12.07;8.00;;;12.70;99.90;;;12.81;72.83;95547.97;5111056;27;20446;-59
2023/05/14 08:00:18;;;;;;;15.43;8.40;;;12.70;99.90;;;12.77;72.52;95544.78;5108517;27;20473;-70
2023/05/14 08:02:46;;;;;;;14.67;7.27;;;12.70;99.90;;;12.75;72.78;95549.38;5106851;27;20563;-59
2023/05/14 08:05:13;;;;;;;8.03;5.50;;;12.60;99.90;;;12.68;72.33;95551.69;5110156;27;21348;-59
2023/05/14 08:07:40;;;;;;;8.03;6.77;;;12.60;99.90;;;12.64;72.44;95549.47;5107136;27;20477;-69
2023/05/14 08:10:09;;;;;;;12.03;6.63;;;12.60;99.90;;;12.59;72.88;95551.69;5109845;27;20929;-70
2023/05/14 08:12:38;;;;;;;6.60;6.00;;;12.60;99.90;;;12.58;73.59;95544.72;5111649;27;20457;-68
2023/05/14 08:15:08;;;;;;;10.33;6.40;;;12.50;99.90;;;12.61;73.00;95533.91;5110250;27;20483;-64
2023/05/14 08:17:35;;;;;;;5.97;5.37;;;12.50;99.90;;;12.60;72.78;95524.34;5114380;27;20995;-69
2023/05/14 08:20:04;;;;;;;6.50;5.47;;;12.50;99.90;;;12.54;73.03;95523.88;5113169;27;20475;-70
2023/05/14 08:22:32;;;;;;;7.87;5.57;;;12.50;99.90;;;12.49;72.63;95520.00;5112225;27;20483;-69
2023/05/14 08:24:59;;;;;;;21.20;11.37;;;12.50;99.90;;;12.42;73.60;95516.22;5115122;27;20487;-69
2023/05/14 08:27:27;;;;;;;12.73;8.97;;;12.40;99.90;;;12.38;73.45;95515.69;5113581;27;20929;-71
2023/05/14 08:29:56;;;;;;;7.83;5.80;;;12.40;99.90;;;12.40;73.77;95512.91;5110478;27;20473;-70
2023/05/14 08:32:23;;;;;;;9.50;5.43;;;12.30;99.90;;;12.45;73.56;95515.97;5111520;27;21274;-70
2023/05/14 08:34:51;;;;;;;6.83;6.00;;;12.40;99.90;;;12.49;73.36;95520.81;5115864;27;21013;-70
2023/05/14 08:37:18;;;;;;;7.57;5.73;;;12.40;99.90;;;12.50;73.91;95511.94;5113840;27;20456;-59
2023/05/14 08:39:45;;;;;;;8.50;5.67;;;12.40;99.90;;;12.53;73.65;95508.19;5110139;27;20503;-58
2023/05/14 08:42:13;;;;;;;4.97;4.40;;;12.40;99.90;;;12.57;73.33;95500.84;5105704;27;20492;-59
2023/05/14 08:44:47;;;;;;;5.50;5.00;;;12.50;99.90;;;12.61;73.26;95497.81;5103972;28;20538;-72
2023/05/14 08:47:17;;;;;;;10.77;6.53;;;12.50;99.90;;;12.66;73.60;95498.22;5113446;27;20456;-75
2023/05/14 08:49:46;;;;;;;8.27;5.73;;;12.50;99.90;;;12.68;73.10;95500.72;5105958;28;20461;-59
2023/05/14 08:52:14;;;;;;;6.07;5.47;;;12.50;99.90;;;12.64;72.98;95502.81;5108217;27;21743;-72
2023/05/14 08:54:41;;;;;;;8.10;6.63;;;12.60;99.90;;;12.55;72.74;95495.72;5116817;27;20488;-58
2023/05/14 08:57:09;;;;;;;6.43;5.70;;;12.50;99.90;;;12.48;73.57;95492.75;5107261;27;20461;-59
2023/05/14 08:59:37;;;;;;;7.23;5.10;;;12.40;99.90;;;12.48;74.00;95507.78;5105410;28;20481;-71
2023/05/14 09:02:05;;;;;;;6.90;5.50;;;12.40;99.90;;;12.50;73.75;95511.94;5103924;28;20664;-59
2023/05/14 09:04:34;;;;;;;7.87;5.70;;;12.40;99.90;;;12.53;73.29;95508.19;5116874;27;20476;-59
2023/05/14 09:07:02;;;;;;;10.23;6.53;;;12.40;99.90;;;12.58;73.58;95508.63;5109880;27;20453;-72
2023/05/14 09:09:30;;;;;;;7.17;6.47;;;12.50;99.90;;;12.65;73.19;95506.28;5113958;27;20476;-71
2023/05/14 09:11:57;;;;;;;10.13;6.23;;;12.50;99.90;;;12.70;73.06;95498.78;5111658;27;21063;-71
2023/05/14 09:14:25;;;;;;;7.63;6.10;;;12.60;99.90;;;12.76;72.33;95476.28;5107744;27;20972;-67
2023/05/14 09:16:53;;;;;;;8.37;6.53;;;12.60;99.90;;;12.80;72.67;95481.16;5109947;27;21181;-68
2023/05/14 09:19:20;;;;;;;7.63;5.80;;;12.70;99.90;;;12.83;72.69;95493.25;5108724;27;20464;-57
2023/05/14 09:21:49;;;;;;;13.40;6.10;;;12.80;99.90;;;12.85;72.51;95494.75;5111441;27;20483;-59
2023/05/14 09:24:21;;;;;;;6.87;5.13;;;12.70;99.90;;;12.85;71.90;95500.03;5106595;27;20477;-60
2023/05/14 09:26:51;;;;;;;6.77;5.37;;;12.70;99.90;;;12.79;71.88;95494.47;5108320;27;20462;-59
2023/05/14 09:29:18;;;;;;;13.80;6.20;;;12.70;99.90;;;12.72;72.34;95481.00;5105781;27;20476;-68
2023/05/14 09:31:46;;;;;;;8.17;5.83;;;12.70;99.90;;;12.67;72.58;95473.50;5102063;27;20511;-61
2023/05/14 09:34:15;;;;;;;9.70;5.57;;;12.60;99.90;;;12.64;72.62;95480.84;5119309;27;20560;-59
2023/05/14 09:36:43;;;;;;;5.70;4.93;;;12.60;99.90;;;12.60;72.69;95484.75;5117890;27;20517;-61
2023/05/14 09:39:11;;;;;;;29.23;17.57;;;12.50;99.90;;;12.57;73.23;95477.09;5115214;27;20486;-60
2023/05/14 09:41:39;;;;;;;8.60;7.70;;;12.50;99.90;;;12.49;72.88;95467.22;5112013;27;20492;-70
2023/05/14 09:44:06;;;;;;;6.93;4.80;;;12.50;99.90;;;12.43;73.14;95476.53;5107303;27;20486;-73
2023/05/14 09:46:33;;;;;;;5.27;4.77;;;12.40;99.90;;;12.40;73.82;95484.72;5112101;27;20469;-67
2023/05/14 09:49:01;;;;;;;9.03;6.37;;;12.30;99.90;;;12.40;73.19;95486.53;5110594;27;20479;-61
2023/05/14 09:51:31;;;;;;;11.13;4.97;;;12.30;99.90;;;12.37;73.33;95477.88;5102463;27;20467;-58
2023/05/14 09:53:58;;;;;;;11.73;4.80;;;12.30;99.90;;;12.39;74.26;95477.75;5110438;27;20563;-69
2023/05/14 09:56:27;;;;;;;8.83;6.20;;;12.30;99.90;;;12.40;73.22;95476.78;5113168;27;21072;-72
2023/05/14 09:58:54;;;;;;;18.63;14.30;;;12.30;99.90;;;12.40;72.69;95471.50;5107036;27;21019;-60
2023/05/14 10:01:22;;;;;;;9.33;7.20;;;12.30;99.90;;;12.38;73.10;95463.75;5112072;27;20497;-70
2023/05/14 10:03:49;;;;;;;8.60;6.20;;;12.30;99.90;;;12.39;73.45;95451.38;5107937;27;20469;-60
2023/05/14 10:06:17;;;;;;;7.97;6.03;;;12.30;99.90;;;12.38;73.62;95441.81;5111675;27;20511;-71
2023/05/14 10:08:45;;;;;;;5.80;5.37;;;12.30;99.90;;;12.39;73.11;95448.72;5120434;27;20604;-70
2023/05/14 10:11:15;;;;;;;12.43;9.47;;;12.30;99.90;;;12.38;73.37;95452.38;5106726;27;20524;-70
2023/05/14 10:13:49;;;;;;;11.30;8.43;;;12.30;99.90;;;12.37;73.51;95450.69;5107526;27;20606;-70
2023/05/14 10:16:21;;;;;;;9.37;5.10;;;12.30;99.90;;;12.39;73.29;95446.09;5110906;27;20867;-59
2023/05/14 10:18:54;;;;;;;6.50;5.17;;;12.30;99.90;;;12.36;73.04;95412.06;5115457;27;20943;-59
2023/05/14 10:21:21;;;;;;;9.00;6.17;;;12.30;99.90;;;12.34;73.73;95419.31;5107557;27;21167;-59